Terminal Aerodrome Forecast
Issued by NWS Green Bay, WI

Home | Current Version | Previous Version | Graphics & Text | Print | Product List | Glossary On
Versions: 1 2 3 4 5 6 7 8 9 10 11 12 13 14 15 16 17 18 19 20 21 22 23 24 25 26 27 28
953
FTUS43 KGRB 252340
TAFGRB
TAF
KGRB 252340Z 2600/2624 13010KT P6SM OVC090
     FM260500 12008G14KT P6SM VCSH OVC050
      TEMPO 2608/2612 5SM -SHRA BR OVC025
     FM261200 15009G16KT 5SM SHRA OVC020
     FM261500 17011G19KT 3SM SHRA OVC013
     FM262100 20010G17KT 5SM SHRA OVC022=

USA.gov is the U.S. government's official web portal to all federal, state and local government web resources and services.